createdAt,value
2022-12-07T00:02:56.896Z,3.90
2022-12-07T00:06:58.892Z,3.80
2022-12-07T00:11:43.616Z,3.84
2022-12-07T00:16:00.591Z,3.80
2022-12-07T00:20:02.352Z,3.74
2022-12-07T00:24:23.703Z,3.81
2022-12-07T00:28:53.192Z,3.74
2022-12-07T00:33:11.335Z,3.66
2022-12-07T00:37:15.718Z,3.57
2022-12-07T00:41:26.250Z,3.55
2022-12-07T00:45:29.941Z,3.59
2022-12-07T00:49:33.891Z,3.50
2022-12-07T00:53:41.644Z,3.57
2022-12-07T00:58:12.134Z,3.53
2022-12-07T01:02:13.743Z,3.64
2022-12-07T01:06:22.973Z,3.61
2022-12-07T01:10:50.826Z,3.65
2022-12-07T01:14:55.711Z,3.59
2022-12-07T01:18:58.615Z,3.60
2022-12-07T01:23:00.108Z,3.59
2022-12-07T01:27:01.871Z,3.68
2022-12-07T01:31:06.153Z,3.60
2022-12-07T01:35:08.017Z,3.61
2022-12-07T01:39:10.775Z,3.58
2022-12-07T01:43:19.318Z,3.54
2022-12-07T01:47:21.039Z,3.54
2022-12-07T01:51:22.602Z,3.59
2022-12-07T01:55:24.638Z,3.56
2022-12-07T01:59:27.184Z,3.56
2022-12-07T02:03:35.128Z,3.46
2022-12-07T02:07:38.934Z,3.44
2022-12-07T02:11:41.722Z,3.42
2022-12-07T02:15:59.141Z,3.43
2022-12-07T02:20:22.463Z,3.40
2022-12-07T02:24:48.499Z,3.28
2022-12-07T02:29:11.133Z,3.17
2022-12-07T02:33:24.062Z,3.11
2022-12-07T02:37:55.168Z,3.05
2022-12-07T02:42:05.247Z,2.89
2022-12-07T02:46:15.356Z,2.79
2022-12-07T02:50:20.670Z,2.72
2022-12-07T02:54:23.789Z,2.76
2022-12-07T02:58:43.169Z,2.77
2022-12-07T03:03:01.308Z,2.74
2022-12-07T03:07:31.967Z,2.80
2022-12-07T03:11:46.088Z,2.85
2022-12-07T03:15:56.856Z,2.89
2022-12-07T03:20:03.320Z,2.87
2022-12-07T03:24:10.680Z,2.89
2022-12-07T03:28:15.464Z,2.92
2022-12-07T03:32:30.679Z,2.78
2022-12-07T03:36:47.992Z,2.71
2022-12-07T03:40:59.037Z,2.74
2022-12-07T03:45:03.256Z,2.88
2022-12-07T03:49:29.109Z,2.99
2022-12-07T03:53:37.924Z,2.86
2022-12-07T03:57:42.712Z,2.70
2022-12-07T04:01:45.407Z,2.64
2022-12-07T04:05:47.031Z,2.54
2022-12-07T04:09:48.634Z,2.47
2022-12-07T04:14:08.484Z,2.44
2022-12-07T04:18:10.123Z,2.53
2022-12-07T04:22:11.640Z,2.60
2022-12-07T04:26:13.274Z,2.52
2022-12-07T04:30:14.958Z,2.55
2022-12-07T04:34:17.591Z,2.46
2022-12-07T04:38:19.192Z,2.35
2022-12-07T04:42:20.868Z,2.24
2022-12-07T04:46:24.798Z,2.15
2022-12-07T04:50:26.618Z,2.11
2022-12-07T04:54:28.175Z,2.05
2022-12-07T04:58:38.953Z,1.91
2022-12-07T05:02:40.774Z,1.77
2022-12-07T05:06:43.810Z,1.68
2022-12-07T05:10:45.431Z,1.68
2022-12-07T05:14:47.067Z,1.69
2022-12-07T05:18:48.657Z,1.72
2022-12-07T05:22:50.211Z,1.66
2022-12-07T05:26:51.689Z,1.62
2022-12-07T05:30:58.267Z,1.65
2022-12-07T05:35:01.304Z,1.80
2022-12-07T05:39:03.721Z,2.01
2022-12-07T05:43:26.357Z,2.18
2022-12-07T05:47:28.189Z,2.29
2022-12-07T05:51:30.183Z,2.32
2022-12-07T05:55:31.962Z,2.32
2022-12-07T05:59:33.914Z,2.38
2022-12-07T06:03:35.811Z,2.43
2022-12-07T06:07:37.548Z,2.49
2022-12-07T06:11:59.432Z,2.60
2022-12-07T06:16:01.016Z,2.77
2022-12-07T06:20:04.155Z,2.80
2022-12-07T06:24:06.622Z,2.79
2022-12-07T06:28:08.386Z,2.78
2022-12-07T06:32:10.589Z,2.72
2022-12-07T06:36:12.723Z,2.86
2022-12-07T06:40:15.053Z,3.01
2022-12-07T06:44:16.837Z,3.10
2022-12-07T06:48:23.808Z,3.24
2022-12-07T06:52:25.471Z,3.16
2022-12-07T06:56:27.212Z,3.22
2022-12-07T07:00:29.162Z,3.29
2022-12-07T07:04:30.825Z,3.17
2022-12-07T07:08:32.476Z,3.15
2022-12-07T07:12:34.246Z,3.17
2022-12-07T07:16:36.158Z,2.93
2022-12-07T07:20:38.781Z,3.07
2022-12-07T07:24:40.566Z,2.86
2022-12-07T07:28:54.472Z,2.64
2022-12-07T07:33:00.846Z,2.54
2022-12-07T07:37:02.471Z,2.52
2022-12-07T07:41:04.278Z,2.60
2022-12-07T07:45:06.857Z,2.61
2022-12-07T07:49:11.283Z,2.72
2022-12-07T07:58:53.268Z,3.09
2022-12-07T08:02:55.169Z,3.14
2022-12-07T08:07:01.848Z,3.22
2022-12-07T08:16:56.701Z,3.33
2022-12-07T08:21:02.131Z,3.65
2022-12-07T08:25:04.072Z,3.73
2022-12-07T08:29:05.698Z,3.90
2022-12-07T08:34:10.564Z,3.93
2022-12-07T08:38:18.534Z,4.19
2022-12-07T08:42:24.076Z,4.39
2022-12-07T08:46:34.225Z,4.35
2022-12-07T08:50:38.638Z,4.58
2022-12-07T08:54:42.103Z,5.18
2022-12-07T08:58:45.879Z,6.77
2022-12-07T09:02:53.981Z,5.89
2022-12-07T09:06:57.098Z,5.59
2022-12-07T09:10:59.141Z,5.68
2022-12-07T09:15:01.685Z,5.33
2022-12-07T09:19:03.757Z,5.67
2022-12-07T09:23:09.018Z,5.47
2022-12-07T09:27:10.559Z,5.91
2022-12-07T09:31:23.478Z,7.41
2022-12-07T09:35:26.723Z,8.43
2022-12-07T09:39:28.706Z,7.57
2022-12-07T09:43:30.407Z,6.95
2022-12-07T09:47:35.231Z,6.99
2022-12-07T09:52:08.763Z,7.24
2022-12-07T09:56:15.682Z,7.51
2022-12-07T10:00:20.596Z,8.87
2022-12-07T10:04:36.229Z,11.26
2022-12-07T10:08:37.927Z,11.18
2022-12-07T10:13:14.739Z,12.03
2022-12-07T10:17:31.878Z,13.91
2022-12-07T10:22:10.901Z,15.33
2022-12-07T10:26:37.415Z,13.71
2022-12-07T10:31:00.114Z,14.62
2022-12-07T10:35:27.090Z,12.86
2022-12-07T10:39:29.219Z,11.33
2022-12-07T10:43:30.993Z,9.67
2022-12-07T10:47:44.989Z,8.75
2022-12-07T10:52:13.005Z,8.40
2022-12-07T10:56:23.790Z,7.62
2022-12-07T11:00:27.228Z,7.58
2022-12-07T11:05:20.323Z,7.56
2022-12-07T11:10:31.038Z,7.36
2022-12-07T11:14:39.098Z,7.19
2022-12-07T11:18:52.440Z,7.36
2022-12-07T11:23:12.361Z,7.40
2022-12-07T11:27:24.608Z,7.27
2022-12-07T11:31:49.423Z,7.30
2022-12-07T11:36:04.424Z,6.78
2022-12-07T11:40:31.440Z,6.56
2022-12-07T11:45:24.479Z,6.40
2022-12-07T11:49:54.678Z,5.82
2022-12-07T11:54:03.542Z,5.72
2022-12-07T11:58:45.126Z,5.74
2022-12-07T12:03:11.847Z,5.77
2022-12-07T12:17:46.076Z,7.30
2022-12-07T12:21:58.311Z,8.39
2022-12-07T12:26:26.912Z,8.10
2022-12-07T12:31:18.685Z,7.54
2022-12-07T12:35:35.015Z,7.25
2022-12-07T12:39:36.449Z,6.79
2022-12-07T12:43:50.688Z,6.31
2022-12-07T12:48:02.886Z,5.95
2022-12-07T12:52:47.228Z,5.95
2022-12-07T12:57:07.220Z,5.87
2022-12-07T13:01:36.957Z,5.70
2022-12-07T13:06:17.046Z,5.29
2022-12-07T13:10:46.839Z,4.74
2022-12-07T13:15:00.095Z,4.44
2022-12-07T13:19:02.009Z,4.38
2022-12-07T13:23:10.044Z,4.39
2022-12-07T13:27:13.317Z,4.38
2022-12-07T13:31:23.765Z,4.49
2022-12-07T13:35:30.863Z,4.49
2022-12-07T13:39:43.475Z,4.49
2022-12-07T13:44:30.103Z,4.41
2022-12-07T13:48:57.898Z,4.35
2022-12-07T13:53:01.401Z,4.13
2022-12-07T13:57:03.037Z,4.00
2022-12-07T14:01:23.307Z,4.05
2022-12-07T14:05:28.838Z,4.04
2022-12-07T14:09:57.128Z,4.15
2022-12-07T14:14:27.238Z,4.43
2022-12-07T14:19:32.189Z,4.48
2022-12-07T14:23:33.958Z,4.46
2022-12-07T14:27:35.978Z,4.63
2022-12-07T14:31:40.947Z,4.66
2022-12-07T14:35:44.960Z,4.67
2022-12-07T14:39:46.699Z,4.70
2022-12-07T14:44:21.385Z,4.71
2022-12-07T14:53:30.713Z,4.93
2022-12-07T14:57:32.212Z,4.85
2022-12-07T15:01:36.636Z,4.75
2022-12-07T15:05:38.470Z,4.67
2022-12-07T15:10:02.815Z,4.68
2022-12-07T15:14:24.828Z,4.74
2022-12-07T15:18:26.529Z,4.76
2022-12-07T15:22:28.125Z,4.90
2022-12-07T15:26:30.122Z,4.89
2022-12-07T15:30:51.937Z,4.87
2022-12-07T15:34:53.927Z,4.98
2022-12-07T15:39:21.629Z,4.92
2022-12-07T15:43:41.880Z,4.95
2022-12-07T15:48:26.077Z,5.00
2022-12-07T15:52:09.177Z,5.01
2022-12-07T15:56:11.559Z,5.03
2022-12-07T16:00:18.430Z,5.02
2022-12-07T16:04:20.196Z,5.00
2022-12-07T16:08:33.333Z,5.01
2022-12-07T16:12:50.647Z,4.98
2022-12-07T16:16:52.567Z,5.04
2022-12-07T16:20:54.584Z,5.02
2022-12-07T16:24:57.282Z,5.04
2022-12-07T16:29:00.027Z,5.00
2022-12-07T16:33:02.735Z,4.96
2022-12-07T16:37:05.606Z,4.91
2022-12-07T16:41:26.897Z,4.87
2022-12-07T16:45:28.595Z,4.83
2022-12-07T16:49:30.705Z,4.85
2022-12-07T16:53:32.827Z,4.84
2022-12-07T16:57:34.435Z,4.79
2022-12-07T17:01:36.842Z,4.82
2022-12-07T17:05:59.148Z,4.85
2022-12-07T17:10:00.725Z,4.95
2022-12-07T17:14:21.072Z,5.04
2022-12-07T17:18:42.920Z,4.94
2022-12-07T17:23:07.442Z,4.96
2022-12-07T17:27:09.581Z,4.95
2022-12-07T17:31:50.965Z,4.88
2022-12-07T17:36:00.953Z,4.74
2022-12-07T17:40:02.643Z,4.64
2022-12-07T17:44:25.463Z,4.59
2022-12-07T17:48:47.028Z,4.59
2022-12-07T17:53:06.884Z,4.66
2022-12-07T17:57:28.763Z,4.73
2022-12-07T18:01:34.598Z,4.72
2022-12-07T18:06:20.362Z,4.74
2022-12-07T18:10:22.040Z,4.71
2022-12-07T18:14:23.761Z,4.70
2022-12-07T18:18:25.607Z,4.68
2022-12-07T18:22:27.863Z,4.61
2022-12-07T18:26:39.169Z,4.56
2022-12-07T18:31:19.811Z,4.57
2022-12-07T18:35:26.092Z,4.52
2022-12-07T18:39:33.329Z,4.31
2022-12-07T18:43:35.857Z,4.69
2022-12-07T18:47:44.010Z,4.38
2022-12-07T18:51:45.544Z,4.21
2022-12-07T18:55:47.161Z,4.06
2022-12-07T18:59:49.821Z,3.96
2022-12-07T19:03:52.289Z,3.81
2022-12-07T19:08:13.939Z,3.89
2022-12-07T19:12:15.728Z,4.06
2022-12-07T19:17:17.240Z,4.01
2022-12-07T19:21:19.407Z,4.14
2022-12-07T19:25:45.503Z,4.21
2022-12-07T19:29:49.996Z,4.28
2022-12-07T19:34:19.671Z,4.01
2022-12-07T19:38:21.280Z,3.76
2022-12-07T19:42:23.473Z,3.66
2022-12-07T19:46:25.530Z,3.73
2022-12-07T19:50:27.347Z,3.75
2022-12-07T19:54:30.778Z,3.79
2022-12-07T19:58:35.137Z,3.99
2022-12-07T20:02:56.925Z,4.26
2022-12-07T20:07:03.507Z,4.15
2022-12-07T20:11:25.170Z,4.19
2022-12-07T20:15:26.807Z,4.32
2022-12-07T20:19:28.535Z,4.16
2022-12-07T20:23:30.356Z,4.10
2022-12-07T20:27:35.056Z,4.02
2022-12-07T20:31:56.671Z,4.09
2022-12-07T20:36:21.773Z,4.15
2022-12-07T20:40:25.181Z,4.46
2022-12-07T20:44:27.182Z,4.49
2022-12-07T20:48:28.809Z,4.11
2022-12-07T20:52:31.126Z,4.09
2022-12-07T20:56:52.967Z,4.24
2022-12-07T21:01:17.296Z,4.11
2022-12-07T21:05:19.236Z,4.11
2022-12-07T21:09:41.141Z,4.05
2022-12-07T21:13:44.429Z,3.93
2022-12-07T21:17:46.011Z,4.14
2022-12-07T21:21:47.732Z,4.12
2022-12-07T21:25:51.903Z,4.07
2022-12-07T21:29:54.406Z,4.20
2022-12-07T21:33:56.258Z,3.89
2022-12-07T21:37:59.826Z,3.65
2022-12-07T21:42:01.414Z,3.62
2022-12-07T21:46:32.917Z,3.51
2022-12-07T21:56:18.395Z,3.50
2022-12-07T22:00:22.309Z,3.54
2022-12-07T22:04:26.411Z,3.53
2022-12-07T22:08:28.423Z,3.55
2022-12-07T22:12:30.330Z,3.54
2022-12-07T22:16:32.829Z,3.51
2022-12-07T22:21:24.240Z,3.49
2022-12-07T22:26:21.161Z,3.61
2022-12-07T22:30:26.559Z,3.60
2022-12-07T22:34:29.256Z,3.64
2022-12-07T22:39:21.330Z,3.61
2022-12-07T22:44:13.204Z,3.72
2022-12-07T22:48:14.767Z,3.79
2022-12-07T22:52:17.708Z,3.89
2022-12-07T22:56:19.966Z,3.98
2022-12-07T23:00:21.542Z,4.01
2022-12-07T23:04:23.329Z,3.99
2022-12-07T23:08:25.067Z,3.94
2022-12-07T23:12:45.593Z,3.99
2022-12-07T23:17:04.376Z,3.97
2022-12-07T23:21:56.094Z,3.86
2022-12-07T23:26:07.207Z,3.78
2022-12-07T23:30:09.434Z,3.79
2022-12-07T23:35:02.444Z,3.78
2022-12-07T23:39:55.193Z,3.82
2022-12-07T23:44:50.268Z,3.82
2022-12-07T23:48:54.610Z,3.89
2022-12-07T23:52:57.081Z,3.84
2022-12-07T23:56:58.665Z,3.81
